LFRC/CER METAR and TAF weather

Enter ICAO airport designator
Station Type Date Time Source
LFRC METAR 2020/09/18 06:30 UTC NOAA

LFRC 180630Z AUTO 08011KT CAVOK 15/12 Q1019 BECMG 08015G25KT


Station Type Date Time Source
LFRC Decoded METAR 2020/09/18 06:30 UTC NOAA

Cherbourg / Maupertus, France (LFRC) 49-39N 001-28W 139M
Sep 18, 2020 - 02:30 AM EDT / 2020.09.18 0630 UTC
Wind: from the E (080 degrees) at 13 MPH (11 KT):0
Visibility: greater than 7 mile(s):0
Temperature: 59 F (15 C)
Dew Point: 53 F (12 C)
Relative Humidity: 82%
Pressure (altimeter): 30.09 in. Hg (1019 hPa)
ob: LFRC 180630Z AUTO 08011KT CAVOK 15/12 Q1019 BECMG 08015G25KT
cycle: 6

Station Type Date Time Source
LFRC TAF 2008/10/12 17:07 UTC NOAA

TAF
AMD LFRC 121707Z 121721 CNL

Example: see airport list